Time;durP1;ratioP1;P1;durP2;ratioP2;P2;SDS_P1;SDS_P2;PMS_P1;PMS_P2;Temp;Humidity;BMP_temperature;BMP_pressure;BME280_temperature;BME280_humidity;BME280_pressure;Samples;Min_cycle;Max_cycle;Signal;HPM_P1;HPM_P2
2021/12/31 00:01:33;;;;;;;;;;;12.90;99.90;;;;;;5039459;28;19939;-81
2021/12/31 00:03:59;;;;;;;;;;;13.00;99.90;;;;;;5039094;28;19919;-77
2021/12/31 00:06:25;;;;;;;;;;;13.00;99.90;;;;;;5056718;28;19909;-81
2021/12/31 00:08:50;;;;;;;;;;;12.90;99.90;;;;;;5039763;28;19916;-79
2021/12/31 00:11:16;;;;;;;;;;;12.90;99.90;;;;;;5039604;28;19917;-79
2021/12/31 00:13:41;;;;;;;;;;;12.80;99.90;;;;;;5039408;28;20224;-80
2021/12/31 00:16:07;;;;;;;;;;;12.70;99.90;;;;;;5039468;28;19916;-79
2021/12/31 00:18:32;;;;;;;;;;;12.70;99.90;;;;;;5039583;28;19913;-84
2021/12/31 00:20:58;;;;;;;;;;;12.60;99.90;;;;;;5039726;28;20257;-81
2021/12/31 00:23:26;;;;;;;;;;;12.60;99.90;;;;;;5039545;28;19909;-79
2021/12/31 00:25:52;;;;;;;;;;;12.60;99.90;;;;;;5057283;28;20322;-83
2021/12/31 00:28:17;;;;;;;;;;;12.70;99.90;;;;;;5056968;28;19909;-81
2021/12/31 00:30:43;;;;;;;;;;;12.70;99.90;;;;;;5039114;28;19912;-81
2021/12/31 00:33:09;;;;;;;;;;;12.70;99.90;;;;;;5056876;28;19913;-78
2021/12/31 00:35:35;;;;;;;;;;;12.70;99.90;;;;;;5056690;28;19912;-78
2021/12/31 00:38:01;;;;;;;;;;;12.70;99.90;;;;;;5046146;28;20014;-81
2021/12/31 00:40:27;;;;;;;;;;;12.70;99.90;;;;;;5036858;28;19913;-81
2021/12/31 00:42:53;;;;;;;;;;;12.70;99.90;;;;;;5036494;28;19963;-80
2021/12/31 00:45:19;;;;;;;;;;;12.70;99.90;;;;;;5052089;28;19917;-81
2021/12/31 00:47:46;;;;;;;;;;;12.70;99.90;;;;;;5019024;28;19913;-80
2021/12/31 00:50:12;;;;;;;;;;;12.70;99.90;;;;;;5036591;28;19913;-81
2021/12/31 00:52:38;;;;;;;;;;;12.70;99.90;;;;;;5052171;28;19931;-80
2021/12/31 00:55:05;;;;;;;;;;;12.70;99.90;;;;;;5036421;28;20300;-80
2021/12/31 00:57:30;;;;;;;;;;;12.60;99.90;;;;;;5036543;28;19909;-83
2021/12/31 00:59:56;;;;;;;;;;;12.70;99.90;;;;;;5036452;28;20313;-80
2021/12/31 01:02:24;;;;;;;;;;;12.70;99.90;;;;;;5018903;28;19909;-81
2021/12/31 01:04:49;;;;;;;;;;;12.70;99.90;;;;;;5051667;28;19921;-81
2021/12/31 01:07:15;;;;;;;;;;;12.60;99.90;;;;;;5018686;28;20270;-82
2021/12/31 01:09:41;;;;;;;;;;;12.60;99.90;;;;;;5036155;28;19913;-80
2021/12/31 01:12:07;;;;;;;;;;;12.60;99.90;;;;;;5036199;28;20324;-80
2021/12/31 01:14:50;;;;;;;;;;;12.60;99.90;;;;;;5036050;28;19940;-83
2021/12/31 01:17:21;;;;;;;;;;;12.60;99.90;;;;;;5051380;28;19917;-81
2021/12/31 01:19:47;;;;;;;;;;;12.60;99.90;;;;;;5036138;28;19924;-82
2021/12/31 01:22:16;;;;;;;;;;;12.60;99.90;;;;;;5018350;28;19909;-80
2021/12/31 01:24:41;;;;;;;;;;;12.60;99.90;;;;;;5018330;28;19917;-82
2021/12/31 01:27:07;;;;;;;;;;;12.60;99.90;;;;;;5018522;28;19916;-81
2021/12/31 01:29:32;;;;;;;;;;;12.60;99.90;;;;;;5051599;28;19909;-83
2021/12/31 01:31:58;;;;;;;;;;;12.70;99.90;;;;;;5018196;28;19909;-80
2021/12/31 01:34:24;;;;;;;;;;;12.70;99.90;;;;;;5035879;28;20247;-83
2021/12/31 01:36:50;;;;;;;;;;;12.80;99.90;;;;;;5018097;28;19913;-82
2021/12/31 01:39:16;;;;;;;;;;;12.80;99.90;;;;;;5018359;28;20017;-84
2021/12/31 01:41:41;;;;;;;;;;;12.80;99.90;;;;;;5017848;28;19956;-81
2021/12/31 01:44:07;;;;;;;;;;;12.80;99.90;;;;;;5018196;28;20315;-81
2021/12/31 01:46:35;;;;;;;;;;;12.80;99.90;;;;;;5018128;28;19909;-81
2021/12/31 01:49:03;;;;;;;;;;;12.80;99.90;;;;;;5017982;28;19913;-83
2021/12/31 01:51:29;;;;;;;;;;;12.80;99.90;;;;;;5035672;28;19924;-81
2021/12/31 01:53:55;;;;;;;;;;;12.80;99.90;;;;;;5035470;28;19935;-81
2021/12/31 01:56:20;;;;;;;;;;;12.90;99.90;;;;;;5051084;28;20304;-80
2021/12/31 01:58:47;;;;;;;;;;;12.80;99.90;;;;;;5017897;28;20000;-81
2021/12/31 02:01:13;;;;;;;;;;;12.80;99.90;;;;;;5017764;28;20291;-80
2021/12/31 02:03:39;;;;;;;;;;;12.80;99.90;;;;;;5035454;28;19917;-82
2021/12/31 02:06:05;;;;;;;;;;;12.80;99.90;;;;;;5017969;28;19909;-81
2021/12/31 02:08:31;;;;;;;;;;;12.80;99.90;;;;;;5017885;28;19936;-83
2021/12/31 02:10:56;;;;;;;;;;;12.80;99.90;;;;;;5017991;28;19956;-82
2021/12/31 02:13:23;;;;;;;;;;;12.80;99.90;;;;;;5018002;28;19949;-79
2021/12/31 02:15:49;;;;;;;;;;;12.80;99.90;;;;;;5035468;28;19992;-84
2021/12/31 02:18:14;;;;;;;;;;;12.90;99.90;;;;;;5035294;28;20292;-81
2021/12/31 02:20:43;;;;;;;;;;;12.80;99.90;;;;;;5017659;28;19963;-82
2021/12/31 02:23:16;;;;;;;;;;;12.80;99.90;;;;;;5017897;28;19955;-80
2021/12/31 02:25:42;;;;;;;;;;;12.80;99.90;;;;;;5050605;28;19913;-80
2021/12/31 02:28:07;;;;;;;;;;;12.80;99.90;;;;;;5036480;28;19913;-80
2021/12/31 02:30:33;;;;;;;;;;;12.80;99.90;;;;;;5039487;28;20224;-81
2021/12/31 02:32:59;;;;;;;;;;;12.80;99.90;;;;;;5039463;28;19916;-81
2021/12/31 02:35:26;;;;;;;;;;;12.70;99.90;;;;;;5039126;28;19909;-80
2021/12/31 02:37:52;;;;;;;;;;;12.70;99.90;;;;;;5021473;28;20219;-80
2021/12/31 02:40:18;;;;;;;;;;;12.70;99.90;;;;;;5021502;28;19909;-80
2021/12/31 02:42:45;;;;;;;;;;;12.70;99.90;;;;;;5021318;28;20254;-81
2021/12/31 02:45:11;;;;;;;;;;;12.70;99.90;;;;;;5006469;28;19948;-79
2021/12/31 02:47:42;;;;;;;;;;;12.70;99.90;;;;;;5019015;28;19913;-79
2021/12/31 02:50:11;;;;;;;;;;;12.70;99.90;;;;;;5001461;28;19909;-78
2021/12/31 02:52:37;;;;;;;;;;;12.70;99.90;;;;;;5024464;28;19924;-82
2021/12/31 02:55:03;;;;;;;;;;;12.70;99.90;;;;;;5038010;28;19909;-80
2021/12/31 02:57:28;;;;;;;;;;;12.70;99.90;;;;;;5038630;28;20263;-80
2021/12/31 02:59:54;;;;;;;;;;;12.70;99.90;;;;;;5021058;28;19913;-80
2021/12/31 03:02:24;;;;;;;;;;;12.70;99.90;;;;;;5038672;28;19963;-79
2021/12/31 03:04:53;;;;;;;;;;;12.70;99.90;;;;;;5038274;28;20312;-81
2021/12/31 03:07:20;;;;;;;;;;;12.70;99.90;;;;;;5020925;28;20327;-79
2021/12/31 03:09:48;;;;;;;;;;;12.70;99.90;;;;;;5020800;28;19967;-83
2021/12/31 03:12:14;;;;;;;;;;;12.60;99.90;;;;;;5020860;28;19963;-80
2021/12/31 03:14:44;;;;;;;;;;;12.60;99.90;;;;;;5038344;28;19909;-80
2021/12/31 03:17:10;;;;;;;;;;;12.60;99.90;;;;;;5004294;28;19913;-81
2021/12/31 03:19:36;;;;;;;;;;;12.70;99.90;;;;;;5020637;28;19920;-81
2021/12/31 03:22:02;;;;;;;;;;;12.70;99.90;;;;;;5038146;28;20315;-79
2021/12/31 03:24:28;;;;;;;;;;;12.60;99.90;;;;;;5038094;28;20215;-78
2021/12/31 03:26:54;;;;;;;;;;;12.60;99.90;;;;;;5020218;28;20332;-81
2021/12/31 03:29:19;;;;;;;;;;;12.60;99.90;;;;;;5037978;28;19955;-80
2021/12/31 03:31:45;;;;;;;;;;;12.60;99.90;;;;;;5038019;28;19909;-78
2021/12/31 03:34:13;;;;;;;;;;;12.60;99.90;;;;;;5037951;28;19913;-81
2021/12/31 03:36:39;;;;;;;;;;;12.60;99.90;;;;;;5020284;28;19909;-79
2021/12/31 03:39:05;;;;;;;;;;;12.60;99.90;;;;;;5037682;28;19915;-79
2021/12/31 03:41:30;;;;;;;;;;;12.60;99.90;;;;;;5020062;28;20498;-81
2021/12/31 03:43:56;;;;;;;;;;;12.60;99.90;;;;;;5020189;28;19921;-80
2021/12/31 03:46:22;;;;;;;;;;;12.60;99.90;;;;;;5020122;28;20224;-79
2021/12/31 03:48:48;;;;;;;;;;;12.60;99.90;;;;;;5037888;28;19923;-82
2021/12/31 03:51:13;;;;;;;;;;;12.60;99.90;;;;;;5020049;28;19917;-81
2021/12/31 03:53:39;;;;;;;;;;;12.60;99.90;;;;;;5037606;28;19948;-79
2021/12/31 03:56:05;;;;;;;;;;;12.50;99.90;;;;;;5037480;28;19916;-81
2021/12/31 03:58:30;;;;;;;;;;;12.60;99.90;;;;;;5020092;28;20316;-80
2021/12/31 04:00:56;;;;;;;;;;;12.60;99.90;;;;;;5019961;28;19917;-80
2021/12/31 04:03:21;;;;;;;;;;;12.60;99.90;;;;;;5037437;28;19979;-81
2021/12/31 04:05:49;;;;;;;;;;;12.60;99.90;;;;;;5019622;28;19921;-80
2021/12/31 04:08:15;;;;;;;;;;;12.70;99.90;;;;;;5019733;28;19959;-80
2021/12/31 04:10:41;;;;;;;;;;;12.60;99.90;;;;;;5019740;28;19913;-80
2021/12/31 04:13:06;;;;;;;;;;;12.60;99.90;;;;;;5037436;28;19979;-82
2021/12/31 04:15:32;;;;;;;;;;;12.70;99.90;;;;;;5037263;28;19913;-82
2021/12/31 04:17:58;;;;;;;;;;;12.70;99.90;;;;;;5019701;28;20700;-78
2021/12/31 04:23:04;;;;;;;;;;;12.70;99.90;;;;;;5037224;28;19913;-79
2021/12/31 04:25:29;;;;;;;;;;;12.70;99.90;;;;;;5036876;28;19989;-79
2021/12/31 04:27:55;;;;;;;;;;;12.60;99.90;;;;;;5037057;28;20301;-81
2021/12/31 04:30:21;;;;;;;;;;;12.70;99.90;;;;;;5036825;28;20424;-79
2021/12/31 04:32:46;;;;;;;;;;;12.70;99.90;;;;;;5036942;28;20190;-80
2021/12/31 04:35:12;;;;;;;;;;;12.60;99.90;;;;;;5019138;28;19961;-81
2021/12/31 04:37:39;;;;;;;;;;;12.60;99.90;;;;;;5036611;28;19909;-82
2021/12/31 04:40:08;;;;;;;;;;;12.60;99.90;;;;;;5019185;28;20000;-83
2021/12/31 04:42:34;;;;;;;;;;;12.60;99.90;;;;;;5052873;28;19921;-79
2021/12/31 04:44:59;;;;;;;;;;;12.60;99.90;;;;;;5056549;28;20200;-80
2021/12/31 04:47:25;;;;;;;;;;;12.60;99.90;;;;;;5038701;28;19909;-81
2021/12/31 04:49:51;;;;;;;;;;;12.60;99.90;;;;;;5056539;28;19913;-81
2021/12/31 04:52:16;;;;;;;;;;;12.50;99.90;;;;;;5055843;28;19921;-80
2021/12/31 04:54:42;;;;;;;;;;;12.60;99.90;;;;;;5038755;28;19909;-80
2021/12/31 04:57:07;;;;;;;;;;;12.50;99.90;;;;;;5056297;28;19978;-80
2021/12/31 04:59:33;;;;;;;;;;;12.50;99.90;;;;;;5038649;28;20312;-80
2021/12/31 05:01:59;;;;;;;;;;;12.50;99.90;;;;;;5056345;28;19954;-82
2021/12/31 05:04:24;;;;;;;;;;;12.50;99.90;;;;;;5038690;28;19935;-83
2021/12/31 05:06:51;;;;;;;;;;;12.40;99.90;;;;;;5038685;28;19977;-82
2021/12/31 05:09:17;;;;;;;;;;;12.40;99.90;;;;;;5038579;28;20011;-82
2021/12/31 05:11:43;;;;;;;;;;;12.40;99.90;;;;;;5038371;28;20329;-82
2021/12/31 05:14:09;;;;;;;;;;;12.40;99.90;;;;;;5056248;28;19909;-79
2021/12/31 05:16:35;;;;;;;;;;;12.40;99.90;;;;;;5038351;28;19951;-82
2021/12/31 05:19:02;;;;;;;;;;;12.40;99.90;;;;;;5038552;28;19912;-82
2021/12/31 05:21:28;;;;;;;;;;;12.30;99.90;;;;;;5038344;28;19915;-82
2021/12/31 05:23:54;;;;;;;;;;;12.30;99.90;;;;;;5038196;28;20003;-83
2021/12/31 05:26:19;;;;;;;;;;;12.40;99.90;;;;;;5038130;28;19908;-82
2021/12/31 05:28:45;;;;;;;;;;;12.30;99.90;;;;;;5055892;28;19942;-82
2021/12/31 05:31:11;;;;;;;;;;;12.30;99.90;;;;;;5038396;28;19912;-82
2021/12/31 05:33:36;;;;;;;;;;;12.30;99.90;;;;;;5038159;28;19917;-83
2021/12/31 05:36:02;;;;;;;;;;;12.30;99.90;;;;;;5038215;28;20235;-83
2021/12/31 05:38:27;;;;;;;;;;;12.30;99.90;;;;;;5055752;28;19955;-81
2021/12/31 05:40:53;;;;;;;;;;;12.20;99.90;;;;;;5055750;28;20232;-83
2021/12/31 05:43:19;;;;;;;;;;;12.20;99.90;;;;;;5038396;28;19913;-80
2021/12/31 05:45:44;;;;;;;;;;;12.20;99.90;;;;;;5038180;28;19913;-82
2021/12/31 05:48:10;;;;;;;;;;;12.20;99.90;;;;;;5038226;28;19917;-80
2021/12/31 05:50:35;;;;;;;;;;;12.20;99.90;;;;;;5038016;28;19928;-82
2021/12/31 05:53:01;;;;;;;;;;;12.20;99.90;;;;;;5037971;28;19917;-80
2021/12/31 05:55:27;;;;;;;;;;;12.20;99.90;;;;;;5055532;28;19936;-81
2021/12/31 05:57:55;;;;;;;;;;;12.20;99.90;;;;;;5055493;28;20319;-81
2021/12/31 06:00:21;;;;;;;;;;;12.20;99.90;;;;;;5055509;28;19915;-80
2021/12/31 06:02:47;;;;;;;;;;;12.20;99.90;;;;;;5036915;28;19924;-82
2021/12/31 06:05:13;;;;;;;;;;;12.20;99.90;;;;;;5054951;28;20216;-80
2021/12/31 06:07:38;;;;;;;;;;;12.10;99.90;;;;;;5037489;28;19916;-82
2021/12/31 06:10:04;;;;;;;;;;;12.10;99.90;;;;;;5037742;28;19912;-81
2021/12/31 06:12:30;;;;;;;;;;;12.10;99.90;;;;;;5055037;28;20254;-82
2021/12/31 06:14:59;;;;;;;;;;;12.00;99.90;;;;;;5055194;28;19916;-83
2021/12/31 06:17:26;;;;;;;;;;;12.00;99.90;;;;;;5054908;28;19913;-82
2021/12/31 06:19:53;;;;;;;;;;;11.90;99.90;;;;;;5036110;28;19921;-82
2021/12/31 06:22:22;;;;;;;;;;;12.00;99.90;;;;;;5055150;28;19958;-81
2021/12/31 06:24:47;;;;;;;;;;;11.90;99.90;;;;;;5037423;28;19921;-81
2021/12/31 06:27:13;;;;;;;;;;;11.90;99.90;;;;;;5037430;28;19915;-80
2021/12/31 06:29:39;;;;;;;;;;;11.80;99.90;;;;;;5037552;28;19944;-82
2021/12/31 06:32:05;;;;;;;;;;;11.80;99.90;;;;;;5036894;28;19909;-80
2021/12/31 06:34:30;;;;;;;;;;;11.80;99.90;;;;;;5054873;28;20003;-82
2021/12/31 06:36:56;;;;;;;;;;;11.80;99.90;;;;;;5054927;28;19958;-80
2021/12/31 06:39:22;;;;;;;;;;;11.80;99.90;;;;;;5037258;28;20002;-81
2021/12/31 06:41:47;;;;;;;;;;;11.70;99.90;;;;;;5054942;28;19986;-82
2021/12/31 06:44:13;;;;;;;;;;;11.70;99.90;;;;;;5036939;28;19917;-80
2021/12/31 06:46:39;;;;;;;;;;;11.70;99.90;;;;;;5037299;28;19909;-80
2021/12/31 06:49:05;;;;;;;;;;;11.70;99.90;;;;;;5054865;28;20208;-81
2021/12/31 06:51:31;;;;;;;;;;;11.70;99.90;;;;;;5037152;28;19917;-82
2021/12/31 06:53:56;;;;;;;;;;;11.70;99.90;;;;;;5054794;28;19974;-80
2021/12/31 06:56:22;;;;;;;;;;;11.70;99.90;;;;;;5036921;28;19908;-82
2021/12/31 06:58:47;;;;;;;;;;;11.70;99.90;;;;;;5054859;28;20300;-81
2021/12/31 07:01:13;;;;;;;;;;;11.70;99.90;;;;;;5037113;28;19924;-80
2021/12/31 07:03:38;;;;;;;;;;;11.70;99.90;;;;;;5036706;28;19909;-82
2021/12/31 07:06:04;;;;;;;;;;;11.80;99.90;;;;;;5036889;28;19909;-81
2021/12/31 07:08:29;;;;;;;;;;;11.80;99.90;;;;;;5036793;28;20327;-82
2021/12/31 07:10:55;;;;;;;;;;;11.70;99.90;;;;;;5037046;28;19959;-78
2021/12/31 07:13:20;;;;;;;;;;;11.70;99.90;;;;;;5054639;28;19915;-83
2021/12/31 07:15:49;;;;;;;;;;;11.70;99.90;;;;;;5040435;28;19986;-81
2021/12/31 07:18:15;;;;;;;;;;;11.70;99.90;;;;;;5040531;28;20010;-81
2021/12/31 07:20:41;;;;;;;;;;;11.70;99.90;;;;;;5040419;28;19999;-82
2021/12/31 07:23:08;;;;;;;;;;;11.70;99.90;;;;;;5040557;28;19917;-83
2021/12/31 07:25:34;;;;;;;;;;;11.70;99.90;;;;;;5040412;28;19917;-81
2021/12/31 07:27:59;;;;;;;;;;;11.70;99.90;;;;;;5058233;28;19931;-80
2021/12/31 07:30:25;;;;;;;;;;;11.60;99.90;;;;;;5058185;28;19962;-82
2021/12/31 07:32:51;;;;;;;;;;;11.70;99.90;;;;;;5040281;28;19909;-81
2021/12/31 07:35:16;;;;;;;;;;;11.70;99.90;;;;;;5040065;28;20209;-80
2021/12/31 07:37:42;;;;;;;;;;;11.70;99.90;;;;;;5040281;28;19944;-81
2021/12/31 07:40:10;;;;;;;;;;;11.80;99.90;;;;;;5038988;28;19935;-78
2021/12/31 07:42:36;;;;;;;;;;;11.70;99.90;;;;;;5035741;28;19963;-78
2021/12/31 07:45:03;;;;;;;;;;;11.70;99.90;;;;;;5034029;28;19913;-79
2021/12/31 07:47:28;;;;;;;;;;;11.70;99.90;;;;;;5031460;28;19909;-78
2021/12/31 07:49:56;;;;;;;;;;;11.70;99.90;;;;;;5032112;28;19920;-81
2021/12/31 07:52:22;;;;;;;;;;;11.70;99.90;;;;;;5018380;28;20304;-81
2021/12/31 07:54:47;;;;;;;;;;;11.70;99.90;;;;;;5013071;28;19917;-80
2021/12/31 07:57:13;;;;;;;;;;;11.80;99.90;;;;;;5030020;28;19966;-79
2021/12/31 07:59:38;;;;;;;;;;;11.70;99.90;;;;;;5032508;28;19913;-82
2021/12/31 08:02:04;;;;;;;;;;;11.70;99.90;;;;;;5032942;28;19916;-81
2021/12/31 08:04:30;;;;;;;;;;;11.70;99.90;;;;;;5036776;28;20011;-78
2021/12/31 08:06:56;;;;;;;;;;;11.70;99.90;;;;;;5037430;28;20392;-80
2021/12/31 08:09:21;;;;;;;;;;;11.70;99.90;;;;;;5019609;28;19963;-77
2021/12/31 08:11:47;;;;;;;;;;;11.70;99.90;;;;;;5037518;28;19948;-79
2021/12/31 08:14:12;;;;;;;;;;;11.70;99.90;;;;;;5019621;28;20213;-81
2021/12/31 08:16:38;;;;;;;;;;;11.70;99.90;;;;;;5036874;28;19982;-81
2021/12/31 08:19:06;;;;;;;;;;;11.70;99.90;;;;;;5012175;28;19913;-79
2021/12/31 08:21:32;;;;;;;;;;;11.70;99.90;;;;;;5018849;28;20515;-80
2021/12/31 08:23:57;;;;;;;;;;;11.70;99.90;;;;;;5033127;28;19933;-81
2021/12/31 08:26:23;;;;;;;;;;;11.70;99.90;;;;;;5031616;28;19913;-82
2021/12/31 08:28:49;;;;;;;;;;;11.70;99.90;;;;;;5018430;28;19920;-81
2021/12/31 08:31:14;;;;;;;;;;;11.80;99.90;;;;;;5015744;28;19959;-80
2021/12/31 08:33:40;;;;;;;;;;;11.80;99.90;;;;;;5018425;28;19913;-80
2021/12/31 08:36:07;;;;;;;;;;;11.80;99.90;;;;;;5033118;28;19920;-81
2021/12/31 08:38:33;;;;;;;;;;;11.70;99.90;;;;;;5016248;28;19909;-81
2021/12/31 08:41:01;;;;;;;;;;;11.80;99.90;;;;;;5038917;28;19923;-80
2021/12/31 08:43:27;;;;;;;;;;;11.80;99.90;;;;;;5037932;28;19933;-80
2021/12/31 08:45:52;;;;;;;;;;;11.80;99.90;;;;;;5055778;28;19976;-77
2021/12/31 08:48:18;;;;;;;;;;;11.80;99.90;;;;;;5055736;28;20315;-79
2021/12/31 08:50:43;;;;;;;;;;;11.80;99.90;;;;;;5037902;28;19913;-80
2021/12/31 08:53:09;;;;;;;;;;;11.80;99.90;;;;;;5038384;28;19989;-79
2021/12/31 08:55:35;;;;;;;;;;;11.90;99.90;;;;;;5034936;28;19913;-79
2021/12/31 08:58:00;;;;;;;;;;;11.80;99.90;;;;;;5037810;28;19917;-80
2021/12/31 09:00:26;;;;;;;;;;;11.80;99.90;;;;;;5055040;28;19916;-80
2021/12/31 09:02:52;;;;;;;;;;;11.80;99.90;;;;;;5034440;28;19920;-79
2021/12/31 09:05:17;;;;;;;;;;;11.80;99.90;;;;;;5037650;28;19913;-79
2021/12/31 09:07:43;;;;;;;;;;;11.80;99.90;;;;;;5037533;28;19939;-79
2021/12/31 09:10:09;;;;;;;;;;;11.80;99.90;;;;;;5055435;28;19908;-79
2021/12/31 09:12:37;;;;;;;;;;;11.80;99.90;;;;;;5055327;28;19909;-79
2021/12/31 09:15:04;;;;;;;;;;;11.80;99.90;;;;;;5037453;28;20201;-80
2021/12/31 09:17:30;;;;;;;;;;;11.80;99.90;;;;;;5037375;28;20314;-79
2021/12/31 09:19:55;;;;;;;;;;;11.90;99.90;;;;;;5037627;28;19908;-80
2021/12/31 09:22:21;;;;;;;;;;;11.80;99.90;;;;;;5037401;28;19959;-80
2021/12/31 09:24:50;;;;;;;;;;;11.90;99.90;;;;;;5037261;28;19931;-80
2021/12/31 09:27:15;;;;;;;;;;;11.90;99.90;;;;;;5055105;28;19920;-80
2021/12/31 09:29:41;;;;;;;;;;;11.90;99.90;;;;;;5054872;28;19940;-79
2021/12/31 09:32:08;;;;;;;;;;;12.00;99.90;;;;;;5037124;28;19939;-80
2021/12/31 09:34:34;;;;;;;;;;;12.00;99.90;;;;;;5037231;28;19915;-79
2021/12/31 09:37:01;;;;;;;;;;;12.00;99.90;;;;;;5054595;28;19996;-79
2021/12/31 09:39:27;;;;;;;;;;;12.00;99.90;;;;;;5020484;28;20280;-79
2021/12/31 09:41:53;;;;;;;;;;;12.00;99.90;;;;;;5054438;28;19974;-79
2021/12/31 09:44:21;;;;;;;;;;;12.00;99.90;;;;;;5055017;28;20011;-79
2021/12/31 09:46:47;;;;;;;;;;;12.00;99.90;;;;;;5054368;28;19917;-79
2021/12/31 09:49:13;;;;;;;;;;;11.90;99.90;;;;;;5036960;28;19999;-79
2021/12/31 09:51:43;;;;;;;;;;;12.00;99.90;;;;;;5036850;28;19913;-79
2021/12/31 09:54:10;;;;;;;;;;;11.90;99.90;;;;;;5036736;28;20189;-79
2021/12/31 09:56:39;;;;;;;;;;;11.90;99.90;;;;;;5036546;28;20220;-80
2021/12/31 09:59:05;;;;;;;;;;;12.00;99.90;;;;;;5036841;28;20211;-80
2021/12/31 10:01:32;;;;;;;;;;;12.00;99.90;;;;;;5054395;28;19930;-79
2021/12/31 10:04:00;;;;;;;;;;;12.00;99.90;;;;;;5036753;28;19917;-79
2021/12/31 10:06:26;;;;;;;;;;;12.00;99.90;;;;;;5036411;28;19928;-81
2021/12/31 10:08:53;;;;;;;;;;;12.10;99.90;;;;;;5036741;28;20012;-81
2021/12/31 10:11:20;;;;;;;;;;;12.10;99.90;;;;;;5054474;28;19992;-80
2021/12/31 10:13:51;;;;;;;;;;;12.10;99.90;;;;;;5054421;28;20117;-79
2021/12/31 10:16:20;;;;;;;;;;;12.10;99.90;;;;;;5052281;28;20308;-79
2021/12/31 10:18:45;;;;;;;;;;;12.10;99.90;;;;;;5054327;28;19966;-80
2021/12/31 10:21:11;;;;;;;;;;;12.10;99.90;;;;;;5054229;28;19916;-78
2021/12/31 10:23:37;;;;;;;;;;;12.10;99.90;;;;;;5036241;28;19912;-81
2021/12/31 10:26:07;;;;;;;;;;;12.10;99.90;;;;;;5054132;28;20352;-80
2021/12/31 10:28:33;;;;;;;;;;;12.10;99.90;;;;;;5036114;28;19916;-81
2021/12/31 10:31:15;;;;;;;;;;;12.10;99.90;;;;;;5054370;28;19913;-79
2021/12/31 10:33:44;;;;;;;;;;;12.10;99.90;;;;;;5036736;28;20340;-78
2021/12/31 10:36:29;;;;;;;;;;;12.10;99.90;;;;;;5036192;28;19909;-80
2021/12/31 10:38:58;;;;;;;;;;;12.20;99.90;;;;;;5045666;28;20262;-81
2021/12/31 10:41:24;;;;;;;;;;;12.20;99.90;;;;;;5036798;28;19924;-81
2021/12/31 10:43:59;;;;;;;;;;;12.20;99.90;;;;;;5073069;28;19917;-80
2021/12/31 10:46:25;;;;;;;;;;;12.30;99.90;;;;;;5062546;28;20207;-81
2021/12/31 10:48:54;;;;;;;;;;;12.30;99.90;;;;;;5055752;28;19912;-80
2021/12/31 10:51:35;;;;;;;;;;;12.40;99.90;;;;;;5053334;28;20196;-80
2021/12/31 10:54:18;;;;;;;;;;;12.40;99.90;;;;;;5072447;28;19935;-80
2021/12/31 10:56:43;;;;;;;;;;;12.40;99.90;;;;;;5068614;28;20211;-81
2021/12/31 10:59:09;;;;;;;;;;;12.40;99.90;;;;;;5067952;28;19916;-80
2021/12/31 11:01:35;;;;;;;;;;;12.40;99.90;;;;;;5050179;28;19908;-79
2021/12/31 11:04:00;;;;;;;;;;;12.40;99.90;;;;;;5047983;28;19924;-81
2021/12/31 11:06:26;;;;;;;;;;;12.40;99.90;;;;;;5071281;28;19960;-81
2021/12/31 11:08:54;;;;;;;;;;;12.50;99.90;;;;;;5042403;28;20297;-80
2021/12/31 11:11:21;;;;;;;;;;;12.60;99.90;;;;;;5076435;28;19909;-81
2021/12/31 11:13:47;;;;;;;;;;;12.70;99.90;;;;;;5074769;28;19913;-80
2021/12/31 11:16:13;;;;;;;;;;;12.70;99.90;;;;;;5055244;28;19913;-80
2021/12/31 11:18:44;;;;;;;;;;;12.80;99.90;;;;;;5074411;28;19908;-79
2021/12/31 11:21:10;;;;;;;;;;;12.80;99.90;;;;;;5058477;28;19958;-80
2021/12/31 11:23:40;;;;;;;;;;;12.90;99.90;;;;;;5069880;28;19944;-81
2021/12/31 11:26:07;;;;;;;;;;;12.90;99.90;;;;;;5072672;28;19962;-79
2021/12/31 11:28:37;;;;;;;;;;;12.90;99.90;;;;;;5056531;28;19908;-79
2021/12/31 11:31:18;;;;;;;;;;;12.90;99.90;;;;;;5075025;28;19935;-78
2021/12/31 11:33:47;;;;;;;;;;;12.80;99.90;;;;;;5037880;28;19920;-77
2021/12/31 11:36:13;;;;;;;;;;;12.80;99.90;;;;;;5044625;28;19909;-81
2021/12/31 11:38:45;;;;;;;;;;;12.70;99.90;;;;;;5043778;28;19908;-81
2021/12/31 11:41:22;;;;;;;;;;;12.70;99.90;;;;;;5072562;28;19920;-79
2021/12/31 11:44:09;;;;;;;;;;;12.60;99.90;;;;;;5073066;28;19940;-79
2021/12/31 11:46:40;;;;;;;;;;;12.70;99.90;;;;;;5063040;28;19916;-79
2021/12/31 11:49:10;;;;;;;;;;;12.70;99.90;;;;;;5070808;28;19920;-81
2021/12/31 11:51:38;;;;;;;;;;;12.80;99.90;;;;;;5052246;28;20204;-76
2021/12/31 11:54:06;;;;;;;;;;;12.80;99.90;;;;;;5051669;28;19912;-77
2021/12/31 11:56:47;;;;;;;;;;;12.80;99.90;;;;;;5041008;28;19979;-81
2021/12/31 11:59:33;;;;;;;;;;;12.80;99.90;;;;;;5073718;28;20326;-79
2021/12/31 12:02:07;;;;;;;;;;;12.80;99.90;;;;;;5073106;28;20242;-78
2021/12/31 12:04:36;;;;;;;;;;;12.80;99.90;;;;;;5052142;28;19920;-81
2021/12/31 12:07:05;;;;;;;;;;;12.80;99.90;;;;;;5074044;28;20253;-77
2021/12/31 12:09:36;;;;;;;;;;;12.90;99.90;;;;;;5035665;28;19909;-81
2021/12/31 12:12:02;;;;;;;;;;;12.90;99.90;;;;;;5072959;28;20219;-77
2021/12/31 12:14:48;;;;;;;;;;;12.90;99.90;;;;;;5045218;28;19917;-80
2021/12/31 12:17:37;;;;;;;;;;;12.80;99.90;;;;;;5041511;28;19912;-79
2021/12/31 12:20:02;;;;;;;;;;;12.80;99.90;;;;;;5073819;28;19908;-82
2021/12/31 12:22:31;;;;;;;;;;;12.80;99.90;;;;;;5069061;28;19932;-82
2021/12/31 12:24:58;;;;;;;;;;;12.90;99.90;;;;;;5073004;28;19923;-78
2021/12/31 12:27:24;;;;;;;;;;;12.90;99.90;;;;;;5050578;28;19963;-78
2021/12/31 12:29:51;;;;;;;;;;;12.90;99.90;;;;;;5046627;28;19912;-79
2021/12/31 12:32:19;;;;;;;;;;;12.90;99.90;;;;;;5056885;28;19912;-79
2021/12/31 12:34:46;;;;;;;;;;;13.00;99.90;;;;;;5038193;28;19909;-80
2021/12/31 12:37:11;;;;;;;;;;;13.10;99.90;;;;;;5039974;28;19913;-77
2021/12/31 12:39:37;;;;;;;;;;;13.00;99.90;;;;;;5056129;28;19920;-78
2021/12/31 12:42:06;;;;;;;;;;;13.00;99.90;;;;;;5061806;28;19920;-76
2021/12/31 12:44:33;;;;;;;;;;;13.00;99.90;;;;;;5056251;28;19916;-76
2021/12/31 12:46:59;;;;;;;;;;;13.10;99.90;;;;;;5038843;28;20303;-80
2021/12/31 12:49:26;;;;;;;;;;;13.10;99.90;;;;;;5056249;28;19913;-78
2021/12/31 12:51:52;;;;;;;;;;;13.20;99.90;;;;;;5038823;28;19917;-79
2021/12/31 12:54:21;;;;;;;;;;;13.30;99.90;;;;;;5038562;28;19916;-79
2021/12/31 12:56:47;;;;;;;;;;;13.30;99.90;;;;;;5056414;28;20062;-78
2021/12/31 12:59:21;;;;;;;;;;;13.30;99.90;;;;;;5056427;28;19913;-76
2021/12/31 13:01:47;;;;;;;;;;;13.30;99.90;;;;;;5056418;28;19913;-80
2021/12/31 13:04:14;;;;;;;;;;;13.30;99.90;;;;;;5038494;28;19917;-80
2021/12/31 13:06:42;;;;;;;;;;;13.30;99.90;;;;;;5056072;28;19937;-81
2021/12/31 13:09:15;;;;;;;;;;;13.20;99.90;;;;;;5038475;28;19936;-79
2021/12/31 13:11:50;;;;;;;;;;;13.10;99.90;;;;;;5037778;28;19948;-80
2021/12/31 13:14:17;;;;;;;;;;;13.10;99.90;;;;;;5038423;28;19952;-78
2021/12/31 13:16:43;;;;;;;;;;;13.10;99.90;;;;;;5055810;28;19913;-80
2021/12/31 13:19:10;;;;;;;;;;;13.00;99.90;;;;;;5038319;28;19909;-77
2021/12/31 13:21:36;;;;;;;;;;;13.10;99.90;;;;;;5055951;28;19995;-76
2021/12/31 13:24:02;;;;;;;;;;;13.10;99.90;;;;;;5037954;28;20260;-77
2021/12/31 13:26:29;;;;;;;;;;;13.10;99.90;;;;;;5055723;28;19977;-77
2021/12/31 13:28:55;;;;;;;;;;;13.10;99.90;;;;;;5038133;28;20004;-79
2021/12/31 13:31:33;;;;;;;;;;;13.10;99.90;;;;;;5054915;28;20042;-75
2021/12/31 13:34:09;;;;;;;;;;;13.10;99.90;;;;;;5037035;28;19983;-76
2021/12/31 13:36:42;;;;;;;;;;;13.00;99.90;;;;;;5037124;28;20402;-80
2021/12/31 13:39:10;;;;;;;;;;;13.00;99.90;;;;;;5030798;28;19916;-78
2021/12/31 13:41:47;;;;;;;;;;;13.10;99.90;;;;;;5053518;28;20330;-78
2021/12/31 13:44:14;;;;;;;;;;;13.00;99.90;;;;;;5036086;28;19917;-78
2021/12/31 13:46:46;;;;;;;;;;;13.00;99.90;;;;;;5036131;28;20318;-79
2021/12/31 13:49:15;;;;;;;;;;;13.00;99.90;;;;;;5036155;28;19915;-80
2021/12/31 13:51:41;;;;;;;;;;;13.10;99.90;;;;;;5034888;28;20075;-81
2021/12/31 13:54:11;;;;;;;;;;;13.00;99.90;;;;;;5053864;28;19913;-76
2021/12/31 13:56:39;;;;;;;;;;;12.90;99.90;;;;;;5031813;28;19912;-76
2021/12/31 13:59:38;;;;;;;;;;;12.90;99.90;;;;;;5053661;28;19909;-75
2021/12/31 14:02:04;;;;;;;;;;;12.90;99.90;;;;;;4966999;28;19916;-76
2021/12/31 14:04:30;;;;;;;;;;;12.90;99.90;;;;;;4966181;28;19940;-79
2021/12/31 14:07:01;;;;;;;;;;;12.90;99.90;;;;;;4986215;28;20032;-80
2021/12/31 14:09:27;;;;;;;;;;;12.90;99.90;;;;;;4968224;28;20000;-76
2021/12/31 14:11:53;;;;;;;;;;;12.80;99.90;;;;;;4989171;28;20441;-77
2021/12/31 14:14:19;;;;;;;;;;;12.80;99.90;;;;;;4990179;28;19914;-77
2021/12/31 14:16:45;;;;;;;;;;;12.70;99.90;;;;;;4988807;28;19996;-79
2021/12/31 14:19:10;;;;;;;;;;;12.70;99.90;;;;;;4982484;28;19953;-80